New Bedford, MA

1:07 AM EDT on April 21, 2015 (GMT -0400)
West | | Change Station
CLOSE
Current Station
Personal Weather Station
Location: New Bedford, MA
Elevation: 43 ft
Nearby Weather Stations

Elev 43 ft 41.63 °N, 70.92 °W | Updated 2 minutes ago

Overcast
Overcast
54.0 °F
Feels Like 54.0 °F
N
4.0
Wind Variable Wind from ESE
Gusts 5.0 mph

Today
High -- | Low -- °F
--% Chance of Precip.
Yesterday
High -- | Low -- °F
Precip. -- in
5:55 AM 7:30 PM
Waxing Crescent, 8% visible
Pressure 29.69 in
Visibility 3.0 miles
Clouds Overcast 200 ft
Dew Point 53 °F
Humidity 97%
Rainfall 0.00 in
Snow Depth Not available.
UV 0 out of 12
Pollen 5.60 out of 12
Air Quality Not available.
Flu Activity Widespread
METAR KEWB 210453Z AUTO 15014G21KT 3SM BR OVC002 12/12 A2969 RMK AO2 PK WND 13027/0355 SLP052 T01220122 401280050

More Conditions Fewer Conditions

Pressure 29.69 in
Visibility 3.0 miles
Clouds Overcast 200 ft
Dew Point 53 °F
Humidity 97%
Rainfall 0.00 in
Snow Depth Not available.
UV 0 out of 12
Pollen 5.60 out of 12
Air Quality Not available.
Flu Activity Widespread
METAR KEWB 210453Z AUTO 15014G21KT 3SM BR OVC002 12/12 A2969 RMK AO2 PK WND 13027/0355 SLP052 T01220122 401280050

More Conditions Fewer Conditions

10-Day Weather Forecast

Almanac

Astronomy

Apr. 21, 2015 Rise Set
Actual Time
Civil Twilight
Nautical Twilight
Astronomical Twilight
Moon
Length of Visible Light
Length of Day
Tomorrow will be .
, % of the Moon is Illuminated

Today's Extremes

State Highs State Lows

Community

WunderPhotos

Upload Photos

1,815,316 photos uploaded!

WunderBlogs® & News

Nearby

Air Quality

  Air Quality AQ Index Pollutant
Not available.

Snow Depth

Station Depth Elevation

Earthquake Activity

City Distance Mag. Time & Date
Minimum magnitude displayed is 2.5.

Coastal Water Temperatures

Place Temperature

Stations

Nearby Weather Stations

Station Location Temp. Windchill Dew Point Humidity Wind Precip. Elev Updated Type